createdAt,value
2019-04-16T00:02:48.519Z,94851.55
2019-04-16T00:05:27.857Z,94851.86
2019-04-16T00:08:00.213Z,94854.96
2019-04-16T00:10:52.115Z,94848.22
2019-04-16T00:13:25.630Z,94851.64
2019-04-16T00:15:58.378Z,94845.50
2019-04-16T00:18:28.809Z,94845.65
2019-04-16T00:21:16.811Z,94843.33
2019-04-16T00:24:19.450Z,94845.39
2019-04-16T00:26:52.440Z,94848.94
2019-04-16T00:29:23.233Z,94846.11
2019-04-16T00:32:08.145Z,94838.11
2019-04-16T00:34:36.331Z,94839.92
2019-04-16T00:37:06.780Z,94845.77
2019-04-16T00:39:37.357Z,94844.10
2019-04-16T00:42:07.903Z,94844.41
2019-04-16T00:44:38.488Z,94843.43
2019-04-16T00:47:08.921Z,94843.95
2019-04-16T00:49:40.696Z,94843.05
2019-04-16T00:52:10.980Z,94844.56
2019-04-16T00:54:42.401Z,94838.31
2019-04-16T00:57:17.778Z,94843.30
2019-04-16T00:59:46.133Z,94842.54
2019-04-16T01:02:16.620Z,94838.63
2019-04-16T01:04:47.665Z,94842.98
2019-04-16T01:07:18.034Z,94851.98
2019-04-16T01:09:48.817Z,94853.23
2019-04-16T01:12:19.153Z,94856.63
2019-04-16T01:14:50.820Z,94855.81
2019-04-16T01:17:21.284Z,94852.36
2019-04-16T01:19:51.778Z,94848.31
2019-04-16T01:22:22.386Z,94857.04
2019-04-16T01:24:53.205Z,94849.84
2019-04-16T01:27:32.227Z,94854.45
2019-04-16T01:30:05.960Z,94858.11
2019-04-16T01:32:52.631Z,94862.72
2019-04-16T01:35:42.188Z,94858.63
2019-04-16T01:38:34.449Z,94863.17
2019-04-16T01:41:07.340Z,94859.36
2019-04-16T01:43:37.671Z,94861.70
2019-04-16T01:46:08.383Z,94860.06
2019-04-16T01:48:39.671Z,94855.03
2019-04-16T01:51:12.618Z,94859.02
2019-04-16T01:53:42.801Z,94851.63
2019-04-16T01:56:13.220Z,94856.53
2019-04-16T01:58:43.522Z,94852.83
2019-04-16T02:01:14.078Z,94858.97
2019-04-16T02:03:48.627Z,94860.16
2019-04-16T02:06:16.781Z,94855.61
2019-04-16T02:08:47.471Z,94856.37
2019-04-16T02:11:18.242Z,94861.16
2019-04-16T02:13:48.531Z,94865.83
2019-04-16T02:16:22.442Z,94860.69
2019-04-16T02:18:52.283Z,94859.81
2019-04-16T02:21:22.608Z,94864.73
2019-04-16T02:23:53.133Z,94869.97
2019-04-16T02:26:24.223Z,94864.39
2019-04-16T02:28:56.463Z,94870.53
2019-04-16T02:31:26.776Z,94869.83
2019-04-16T02:33:57.507Z,94864.39
2019-04-16T02:36:27.834Z,94873.70
2019-04-16T02:38:58.115Z,94871.83
2019-04-16T02:41:28.921Z,94861.80
2019-04-16T02:43:59.279Z,94873.55
2019-04-16T02:46:32.495Z,94863.83
2019-04-16T02:49:02.960Z,94869.19
2019-04-16T02:51:41.590Z,94867.44
2019-04-16T02:54:20.278Z,94861.73
2019-04-16T02:57:08.481Z,94867.77
2019-04-16T02:59:46.027Z,94859.34
2019-04-16T03:02:44.142Z,94861.98
2019-04-16T03:05:21.459Z,94865.50
2019-04-16T03:07:52.847Z,94862.77
2019-04-16T03:10:23.548Z,94854.27
2019-04-16T03:12:54.375Z,94852.99
2019-04-16T03:15:46.822Z,94855.09
2019-04-16T03:18:18.841Z,94853.70
2019-04-16T03:20:49.129Z,94856.68
2019-04-16T03:23:19.596Z,94853.97
2019-04-16T03:25:50.121Z,94856.09
2019-04-16T03:28:20.453Z,94861.45
2019-04-16T03:30:50.948Z,94863.84
2019-04-16T03:33:21.735Z,94856.17
2019-04-16T03:35:52.003Z,94863.49
2019-04-16T03:38:22.897Z,94861.63
2019-04-16T03:40:56.091Z,94864.25
2019-04-16T03:43:25.545Z,94863.42
2019-04-16T03:45:55.953Z,94863.45
2019-04-16T03:48:26.628Z,94866.71
2019-04-16T03:50:56.942Z,94864.55
2019-04-16T03:53:27.592Z,94870.20
2019-04-16T03:55:58.510Z,94873.42
2019-04-16T03:58:30.896Z,94879.98
2019-04-16T04:01:01.686Z,94878.53
2019-04-16T04:03:32.303Z,94876.94
2019-04-16T04:06:03.591Z,94878.59
2019-04-16T04:08:34.949Z,94890.72
2019-04-16T04:11:09.165Z,94890.48
2019-04-16T04:13:37.285Z,94888.20
2019-04-16T04:16:08.170Z,94894.78
2019-04-16T04:18:42.895Z,94891.64
2019-04-16T04:21:10.844Z,94895.95
2019-04-16T04:23:41.624Z,94898.09
2019-04-16T04:26:12.091Z,94905.09
2019-04-16T04:28:42.693Z,94908.36
2019-04-16T04:31:13.032Z,94907.73
2019-04-16T04:33:43.368Z,94912.57
2019-04-16T04:36:14.017Z,94910.16
2019-04-16T04:38:44.380Z,94928.25
2019-04-16T04:41:14.649Z,94921.75
2019-04-16T04:43:45.461Z,94915.67
2019-04-16T04:46:16.105Z,94922.70
2019-04-16T04:48:46.631Z,94927.88
2019-04-16T04:51:17.403Z,94930.63
2019-04-16T04:53:50.265Z,94936.19
2019-04-16T04:56:21.342Z,94930.23
2019-04-16T04:58:51.874Z,94927.53
2019-04-16T05:01:22.186Z,94927.35
2019-04-16T05:04:26.718Z,94927.51
2019-04-16T05:06:59.816Z,94934.83
2019-04-16T05:09:35.172Z,94933.70
2019-04-16T05:12:02.733Z,94929.95
2019-04-16T05:14:33.186Z,94937.13
2019-04-16T05:17:06.233Z,94934.91
2019-04-16T05:19:35.798Z,94933.48
2019-04-16T05:22:06.378Z,94936.67
2019-04-16T05:24:37.676Z,94931.98
2019-04-16T05:27:09.279Z,94935.24
2019-04-16T05:29:40.086Z,94944.87
2019-04-16T05:32:10.760Z,94942.45
2019-04-16T05:34:41.556Z,94945.66
2019-04-16T05:37:11.881Z,94945.23
2019-04-16T05:39:42.705Z,94951.20
2019-04-16T05:42:13.457Z,94954.01
2019-04-16T05:44:43.803Z,94945.03
2019-04-16T05:47:17.877Z,94943.92
2019-04-16T05:49:46.883Z,94944.36
2019-04-16T05:52:17.178Z,94949.73
2019-04-16T05:55:17.683Z,94940.52
2019-04-16T05:57:48.571Z,94940.20
2019-04-16T06:00:33.526Z,94947.30
2019-04-16T06:03:04.345Z,94945.28
2019-04-16T06:05:34.629Z,94943.22
2019-04-16T06:08:11.596Z,94941.04
2019-04-16T06:10:42.552Z,94945.70
2019-04-16T06:13:41.289Z,94944.91
2019-04-16T06:16:31.276Z,94948.52
2019-04-16T06:19:20.931Z,94939.25
2019-04-16T06:22:09.129Z,94942.94
2019-04-16T06:24:56.959Z,94944.56
2019-04-16T06:27:46.600Z,94942.06
2019-04-16T06:30:50.978Z,94945.96
2019-04-16T06:33:26.150Z,94947.48
2019-04-16T06:36:21.208Z,94951.98
2019-04-16T06:39:29.775Z,94955.28
2019-04-16T06:42:09.443Z,94952.77
2019-04-16T06:45:08.116Z,94955.97
2019-04-16T06:47:52.464Z,94950.98
2019-04-16T06:50:32.698Z,94957.78
2019-04-16T06:53:10.734Z,94958.72
2019-04-16T06:55:49.641Z,94964.56
2019-04-16T06:58:22.459Z,94971.09
2019-04-16T07:01:14.545Z,94956.46
2019-04-16T07:03:48.516Z,94963.73
2019-04-16T07:06:37.171Z,94963.27
2019-04-16T07:09:41.515Z,94961.94
2019-04-16T07:12:09.295Z,94959.78
2019-04-16T07:14:39.952Z,94959.50
2019-04-16T07:17:10.638Z,94965.94
2019-04-16T07:19:42.168Z,94962.64
2019-04-16T07:22:13.277Z,94952.80
2019-04-16T07:24:44.317Z,94956.28
2019-04-16T07:27:19.559Z,94954.28
2019-04-16T07:30:04.863Z,94953.84
2019-04-16T07:32:50.665Z,94958.02
2019-04-16T07:35:41.286Z,94951.66
2019-04-16T07:38:48.719Z,94952.17
2019-04-16T07:41:27.320Z,94946.84
2019-04-16T07:44:09.665Z,94947.00
2019-04-16T07:46:58.413Z,94942.96
2019-04-16T07:49:59.830Z,94934.61
2019-04-16T07:52:46.683Z,94928.38
2019-04-16T07:55:38.739Z,94932.05
2019-04-16T07:58:09.021Z,94919.45
2019-04-16T08:00:41.316Z,94917.86
2019-04-16T08:03:11.688Z,94927.59
2019-04-16T08:05:42.230Z,94922.30
2019-04-16T08:08:12.676Z,94921.14
2019-04-16T08:10:43.432Z,94925.64
2019-04-16T08:13:18.944Z,94928.13
2019-04-16T08:15:49.422Z,94920.95
2019-04-16T08:18:20.150Z,94920.41
2019-04-16T08:21:01.072Z,94917.02
2019-04-16T08:23:32.597Z,94917.94
2019-04-16T08:26:04.832Z,94906.80
2019-04-16T08:28:35.660Z,94907.87
2019-04-16T08:31:11.320Z,94912.36
2019-04-16T08:33:39.743Z,94911.56
2019-04-16T08:36:10.084Z,94918.19
2019-04-16T08:38:40.858Z,94911.30
2019-04-16T08:41:13.232Z,94911.31
2019-04-16T08:43:43.739Z,94904.39
2019-04-16T08:46:14.281Z,94902.23
2019-04-16T08:48:48.931Z,94890.73
2019-04-16T08:51:29.638Z,94886.83
2019-04-16T08:53:49.810Z,94900.94
2019-04-16T08:56:20.248Z,94895.06
2019-04-16T08:58:51.061Z,94894.64
2019-04-16T09:01:27.113Z,94887.31
2019-04-16T09:04:01.301Z,94887.63
2019-04-16T09:06:29.519Z,94893.45
2019-04-16T09:09:24.280Z,94888.72
2019-04-16T09:11:55.939Z,94880.16
2019-04-16T09:14:28.503Z,94879.39
2019-04-16T09:17:09.592Z,94884.45
2019-04-16T09:19:40.734Z,94888.67
2019-04-16T09:22:15.470Z,94880.99
2019-04-16T09:24:51.572Z,94880.25
2019-04-16T09:27:29.608Z,94871.61
2019-04-16T09:30:22.098Z,94879.16
2019-04-16T09:33:17.431Z,94873.39
2019-04-16T09:36:18.356Z,94866.45
2019-04-16T09:38:56.808Z,94861.20
2019-04-16T09:41:48.096Z,94863.87
2019-04-16T09:44:18.401Z,94844.70
2019-04-16T09:46:51.551Z,94851.31
2019-04-16T09:49:21.430Z,94850.51
2019-04-16T09:52:00.252Z,94852.13
2019-04-16T09:54:32.646Z,94854.06
2019-04-16T09:57:03.321Z,94855.74
2019-04-16T09:59:40.837Z,94859.39
2019-04-16T10:02:15.638Z,94851.81
2019-04-16T10:04:47.090Z,94850.97
2019-04-16T10:07:19.391Z,94849.67
2019-04-16T10:09:54.534Z,94844.34
2019-04-16T10:12:26.328Z,94845.55
2019-04-16T10:15:00.066Z,94839.08
2019-04-16T10:17:35.433Z,94832.09
2019-04-16T10:20:06.622Z,94834.70
2019-04-16T10:22:37.199Z,94820.55
2019-04-16T10:25:19.402Z,94818.95
2019-04-16T10:28:12.200Z,94816.55
2019-04-16T10:30:47.153Z,94807.66
2019-04-16T10:33:17.491Z,94797.06
2019-04-16T10:35:48.202Z,94819.20
2019-04-16T10:38:36.531Z,94809.55
2019-04-16T10:41:13.388Z,94811.70
2019-04-16T10:43:54.005Z,94805.48
2019-04-16T10:46:40.476Z,94794.19
2019-04-16T10:49:41.783Z,94815.00
2019-04-16T10:52:54.365Z,94800.33
2019-04-16T10:55:36.500Z,94790.14
2019-04-16T10:58:23.938Z,94789.47
2019-04-16T11:01:08.091Z,94782.04
2019-04-16T11:03:45.331Z,94786.80
2019-04-16T11:06:25.582Z,94788.16
2019-04-16T11:08:55.867Z,94790.05
2019-04-16T11:11:26.608Z,94782.43
2019-04-16T11:14:00.047Z,94778.77
2019-04-16T11:16:29.287Z,94777.97
2019-04-16T11:18:59.890Z,94773.05
2019-04-16T11:21:30.596Z,94773.84
2019-04-16T11:24:01.137Z,94764.60
2019-04-16T11:26:31.814Z,94765.05
2019-04-16T11:29:02.199Z,94775.81
2019-04-16T11:31:32.890Z,94778.19
2019-04-16T11:34:06.536Z,94785.53
2019-04-16T11:36:37.827Z,94788.80
2019-04-16T11:39:10.547Z,94801.84
2019-04-16T11:41:41.671Z,94796.86
2019-04-16T11:44:15.972Z,94807.92
2019-04-16T11:46:44.505Z,94804.70
2019-04-16T11:49:15.322Z,94810.02
2019-04-16T11:51:45.644Z,94807.31
2019-04-16T11:54:16.232Z,94792.59
2019-04-16T11:56:46.680Z,94803.53
2019-04-16T11:59:17.037Z,94804.13
2019-04-16T12:02:00.990Z,94807.95
2019-04-16T12:04:39.206Z,94801.14
2019-04-16T12:07:46.872Z,94801.52
2019-04-16T12:10:38.637Z,94796.16
2019-04-16T12:13:27.191Z,94790.41
2019-04-16T12:16:31.694Z,94788.50
2019-04-16T12:19:20.062Z,94797.37
2019-04-16T12:22:11.200Z,94794.06
2019-04-16T12:25:03.347Z,94788.65
2019-04-16T12:27:51.691Z,94794.86
2019-04-16T12:30:28.052Z,94791.03
2019-04-16T12:33:29.494Z,94793.22
2019-04-16T12:36:14.438Z,94783.25
2019-04-16T12:39:04.042Z,94778.39
2019-04-16T12:41:47.128Z,94786.01
2019-04-16T12:44:46.135Z,94770.45
2019-04-16T12:47:32.599Z,94776.80
2019-04-16T12:50:24.545Z,94774.38
2019-04-16T12:53:02.672Z,94768.54
2019-04-16T12:55:51.699Z,94763.97
2019-04-16T12:58:43.759Z,94765.95
2019-04-16T13:01:45.136Z,94762.36
2019-04-16T13:04:33.310Z,94767.41
2019-04-16T13:07:13.838Z,94760.77
2019-04-16T13:10:12.422Z,94757.41
2019-04-16T13:13:00.532Z,94758.52
2019-04-16T13:15:48.853Z,94754.05
2019-04-16T13:18:23.753Z,94752.99
2019-04-16T13:21:03.918Z,94753.00
2019-04-16T13:23:41.729Z,94747.97
2019-04-16T13:26:25.093Z,94762.44
2019-04-16T13:28:56.250Z,94758.72
2019-04-16T13:31:27.845Z,94768.26
2019-04-16T13:33:58.821Z,94775.59
2019-04-16T13:36:29.417Z,94770.08
2019-04-16T13:39:19.043Z,94770.63
2019-04-16T13:41:49.338Z,94767.70
2019-04-16T13:44:21.120Z,94766.84
2019-04-16T13:46:51.969Z,94764.30
2019-04-16T13:49:31.437Z,94756.93
2019-04-16T13:51:58.947Z,94742.57
2019-04-16T13:54:48.684Z,94739.80
2019-04-16T13:57:20.466Z,94730.14
2019-04-16T14:00:03.021Z,94509.84
2019-04-16T14:02:51.256Z,94731.66
2019-04-16T14:05:23.445Z,94742.44
2019-04-16T14:07:54.077Z,94742.41
2019-04-16T14:10:24.748Z,94736.41
2019-04-16T14:12:55.091Z,94742.28
2019-04-16T14:15:32.248Z,94730.47
2019-04-16T14:18:00.774Z,94730.47
2019-04-16T14:20:31.279Z,94720.08
2019-04-16T14:23:02.064Z,94722.48
2019-04-16T14:25:32.746Z,94727.06
2019-04-16T14:28:03.701Z,94728.33
2019-04-16T14:30:39.551Z,94726.05
2019-04-16T14:33:09.542Z,94734.31
2019-04-16T14:35:41.333Z,94730.07
2019-04-16T14:38:13.770Z,94732.42
2019-04-16T14:40:44.076Z,94734.94
2019-04-16T14:43:17.179Z,94730.15
2019-04-16T14:45:58.437Z,94731.52
2019-04-16T14:48:21.664Z,94718.86
2019-04-16T14:50:52.051Z,94726.41
2019-04-16T14:53:51.440Z,94726.48
2019-04-16T14:56:30.727Z,94735.38
2019-04-16T14:59:06.803Z,94733.00
2019-04-16T15:02:05.273Z,94728.31
2019-04-16T15:04:40.143Z,94731.17
2019-04-16T15:07:19.843Z,94721.23
2019-04-16T15:10:09.301Z,94722.12
2019-04-16T15:12:53.813Z,94726.86
2019-04-16T15:15:28.594Z,94724.51
2019-04-16T15:18:26.999Z,94722.67
2019-04-16T15:21:23.363Z,94716.88
2019-04-16T15:24:24.730Z,94722.37
2019-04-16T15:27:19.737Z,94738.97
2019-04-16T15:30:08.090Z,94719.64
2019-04-16T15:32:56.049Z,94712.50
2019-04-16T15:35:43.686Z,94717.95
2019-04-16T15:38:19.912Z,94721.19
2019-04-16T15:40:52.397Z,94723.84
2019-04-16T15:43:44.709Z,94708.88
2019-04-16T15:46:35.139Z,94715.92
2019-04-16T15:49:35.794Z,94717.54
2019-04-16T15:52:25.092Z,94727.80
2019-04-16T15:55:09.170Z,94721.23
2019-04-16T15:57:57.335Z,94719.55
2019-04-16T16:00:45.627Z,94721.34
2019-04-16T16:03:38.194Z,94720.12
2019-04-16T16:06:12.393Z,94717.53
2019-04-16T16:08:55.967Z,94711.70
2019-04-16T16:11:32.292Z,94714.53
2019-04-16T16:14:02.696Z,94705.75
2019-04-16T16:16:41.425Z,94701.72
2019-04-16T16:19:10.930Z,94707.91
2019-04-16T16:21:38.604Z,94710.92
2019-04-16T16:24:08.922Z,94711.07
2019-04-16T16:26:39.392Z,94710.48
2019-04-16T16:29:10.093Z,94707.03
2019-04-16T16:31:40.489Z,94706.77
2019-04-16T16:34:11.055Z,94710.14
2019-04-16T16:36:41.754Z,94714.41
2019-04-16T16:39:12.160Z,94712.16
2019-04-16T16:41:46.329Z,94714.85
2019-04-16T16:44:15.835Z,94699.91
2019-04-16T16:47:17.168Z,94709.36
2019-04-16T16:49:48.078Z,94705.99
2019-04-16T16:52:43.355Z,94715.18
2019-04-16T16:55:42.073Z,94714.13
2019-04-16T16:58:30.421Z,94719.59
2019-04-16T17:01:19.677Z,94720.17
2019-04-16T17:03:56.897Z,94717.53
2019-04-16T17:06:27.928Z,94721.20
2019-04-16T17:08:58.337Z,94715.41
2019-04-16T17:11:28.662Z,94722.00
2019-04-16T17:14:02.281Z,94722.79
2019-04-16T17:16:31.559Z,94726.19
2019-04-16T17:19:01.899Z,94719.09
2019-04-16T17:21:32.662Z,94725.23
2019-04-16T17:24:02.972Z,94727.78
2019-04-16T17:26:33.791Z,94727.48
2019-04-16T17:29:04.191Z,94726.13
2019-04-16T17:31:36.135Z,94720.69
2019-04-16T17:34:07.216Z,94729.86
2019-04-16T17:36:37.747Z,94728.37
2019-04-16T17:39:10.487Z,94733.61
2019-04-16T17:41:51.565Z,94740.53
2019-04-16T17:44:31.346Z,94733.11
2019-04-16T17:47:32.403Z,94736.88
2019-04-16T17:50:06.892Z,94742.61
2019-04-16T17:52:51.722Z,94748.92
2019-04-16T17:55:39.494Z,94757.73
2019-04-16T17:58:13.607Z,94758.97
2019-04-16T18:01:10.371Z,94762.97
2019-04-16T18:03:56.295Z,94767.11
2019-04-16T18:06:38.370Z,94771.68
2019-04-16T18:09:26.144Z,94779.78
2019-04-16T18:12:16.969Z,94780.52
2019-04-16T18:15:09.004Z,94782.25
2019-04-16T18:17:55.722Z,94789.66
2019-04-16T18:20:57.439Z,94789.28
2019-04-16T18:23:34.889Z,94791.90
2019-04-16T18:26:23.360Z,94785.40
2019-04-16T18:29:06.327Z,94798.11
2019-04-16T18:31:52.505Z,94796.26
2019-04-16T18:34:59.488Z,94800.55
2019-04-16T18:37:49.675Z,94799.84
2019-04-16T18:40:33.340Z,94800.31
2019-04-16T18:43:14.804Z,94798.85
2019-04-16T18:46:09.886Z,94798.38
2019-04-16T18:48:44.655Z,94800.58
2019-04-16T18:51:14.452Z,94799.64
2019-04-16T18:53:44.786Z,94811.52
2019-04-16T18:56:15.622Z,94799.78
2019-04-16T18:58:46.310Z,94805.31
2019-04-16T19:01:24.972Z,94801.69
2019-04-16T19:03:55.656Z,94805.95
2019-04-16T19:06:25.947Z,94808.40
2019-04-16T19:08:56.701Z,94809.92
2019-04-16T19:11:27.172Z,94802.53
2019-04-16T19:13:57.505Z,94804.41
2019-04-16T19:16:28.165Z,94808.40
2019-04-16T19:18:58.782Z,94804.72
2019-04-16T19:21:29.097Z,94799.64
2019-04-16T19:23:59.542Z,94810.37
2019-04-16T19:26:30.503Z,94810.94
2019-04-16T19:29:00.886Z,94807.02
2019-04-16T19:31:31.234Z,94820.86
2019-04-16T19:34:01.919Z,94804.12
2019-04-16T19:36:32.233Z,94804.52
2019-04-16T19:39:05.462Z,94806.04
2019-04-16T19:41:35.375Z,94800.36
2019-04-16T19:44:07.554Z,94802.30
2019-04-16T19:46:38.147Z,94808.42
2019-04-16T19:49:08.436Z,94804.52
2019-04-16T19:51:41.117Z,94809.47
2019-04-16T19:54:11.628Z,94808.92
2019-04-16T19:56:42.055Z,94811.02
2019-04-16T19:59:12.445Z,94818.55
2019-04-16T20:01:43.133Z,94818.54
2019-04-16T20:04:13.681Z,94808.95
2019-04-16T20:06:44.083Z,94818.54
2019-04-16T20:09:14.796Z,94816.59
2019-04-16T20:11:45.964Z,94814.22
2019-04-16T20:14:16.314Z,94809.74
2019-04-16T20:16:47.135Z,94814.93
2019-04-16T20:19:17.642Z,94822.38
2019-04-16T20:21:47.991Z,94803.34
2019-04-16T20:24:18.381Z,94810.94
2019-04-16T20:26:49.046Z,94809.31
2019-04-16T20:29:19.310Z,94812.47
2019-04-16T20:31:49.652Z,94814.25
2019-04-16T20:34:20.325Z,94810.23
2019-04-16T20:36:52.234Z,94810.55
2019-04-16T20:39:22.585Z,94815.27
2019-04-16T20:41:55.317Z,94808.31
2019-04-16T20:44:25.089Z,94808.13
2019-04-16T20:46:58.616Z,94807.17
2019-04-16T20:49:27.885Z,94803.91
2019-04-16T20:52:00.451Z,94804.45
2019-04-16T20:54:31.169Z,94801.18
2019-04-16T20:57:01.602Z,94804.16
2019-04-16T20:59:31.945Z,94801.85
2019-04-16T21:02:02.758Z,94802.45
2019-04-16T21:04:33.261Z,94814.55
2019-04-16T21:07:03.870Z,94809.87
2019-04-16T21:09:34.473Z,94798.19
2019-04-16T21:12:05.731Z,94801.13
2019-04-16T21:14:36.152Z,94804.93
2019-04-16T21:17:07.697Z,94804.44
2019-04-16T21:19:46.506Z,94804.34
2019-04-16T21:22:18.470Z,94805.44
2019-04-16T21:24:49.177Z,94808.29
2019-04-16T21:27:19.504Z,94802.66
2019-04-16T21:29:50.336Z,94809.28
2019-04-16T21:32:48.660Z,94805.51
2019-04-16T21:35:24.914Z,94813.88
2019-04-16T21:38:06.920Z,94813.17
2019-04-16T21:40:37.309Z,94810.78
2019-04-16T21:43:08.475Z,94804.95
2019-04-16T21:45:39.547Z,94809.07
2019-04-16T21:48:12.368Z,94809.35
2019-04-16T21:50:44.554Z,94799.05
2019-04-16T21:53:14.736Z,94805.83
2019-04-16T21:55:45.024Z,94799.20
2019-04-16T21:58:17.638Z,94804.81
2019-04-16T22:01:11.913Z,94810.94
2019-04-16T22:03:43.057Z,94803.59
2019-04-16T22:06:13.488Z,94811.59
2019-04-16T22:08:43.909Z,94812.09
2019-04-16T22:11:14.314Z,94798.16
2019-04-16T22:13:44.708Z,94806.55
2019-04-16T22:16:15.393Z,94805.77
2019-04-16T22:18:45.721Z,94809.44
2019-04-16T22:21:16.610Z,94810.17
2019-04-16T22:23:50.135Z,94812.38
2019-04-16T22:26:19.157Z,94816.88
2019-04-16T22:28:49.846Z,94812.55
2019-04-16T22:31:23.392Z,94815.57
2019-04-16T22:33:52.123Z,94827.61
2019-04-16T22:36:22.853Z,94822.56
2019-04-16T22:38:59.497Z,94820.17
2019-04-16T22:41:41.120Z,94821.85
2019-04-16T22:44:45.665Z,94822.91
2019-04-16T22:47:19.307Z,94826.59
2019-04-16T22:49:51.653Z,94818.23
2019-04-16T22:52:21.896Z,94823.03
2019-04-16T22:54:53.034Z,94821.68
2019-04-16T22:57:24.124Z,94819.59
2019-04-16T22:59:54.473Z,94815.39
2019-04-16T23:02:27.326Z,94819.14
2019-04-16T23:04:59.644Z,94819.59
2019-04-16T23:07:29.942Z,94813.09
2019-04-16T23:10:00.390Z,94817.95
2019-04-16T23:12:31.141Z,94821.14
2019-04-16T23:15:01.715Z,94813.16
2019-04-16T23:17:32.008Z,94808.08
2019-04-16T23:20:02.708Z,94811.10
2019-04-16T23:22:33.586Z,94810.37
2019-04-16T23:25:03.977Z,94806.12
2019-04-16T23:27:37.351Z,94807.38
2019-04-16T23:30:06.653Z,94811.81
2019-04-16T23:32:37.425Z,94806.86
2019-04-16T23:35:10.809Z,94800.94
2019-04-16T23:37:40.785Z,94808.61
2019-04-16T23:40:12.213Z,94794.45
2019-04-16T23:42:54.747Z,94801.38
2019-04-16T23:45:46.936Z,94796.84
2019-04-16T23:48:28.433Z,94806.37
2019-04-16T23:51:12.867Z,94797.55
2019-04-16T23:53:53.938Z,94808.41
2019-04-16T23:56:32.643Z,94810.86
2019-04-16T23:59:25.528Z,94800.17
